sensor_id;sensor_type;location;lat;lon;timestamp;P1;durP1;ratioP1;P2;durP2;ratioP2
23668;SDS011;12011;47.422;15.018;2022-09-09T00:00:16;0.31;;;0.31;;
23668;SDS011;12011;47.422;15.018;2022-09-09T00:02:50;0.52;;;0.52;;
23668;SDS011;12011;47.422;15.018;2022-09-09T00:05:31;0.46;;;0.46;;
23668;SDS011;12011;47.422;15.018;2022-09-09T00:08:13;0.28;;;0.28;;
23668;SDS011;12011;47.422;15.018;2022-09-09T00:10:51;0.36;;;0.36;;
23668;SDS011;12011;47.422;15.018;2022-09-09T00:13:33;0.36;;;0.36;;
23668;SDS011;12011;47.422;15.018;2022-09-09T00:16:12;0.38;;;0.38;;
23668;SDS011;12011;47.422;15.018;2022-09-09T00:18:51;0.33;;;0.33;;
23668;SDS011;12011;47.422;15.018;2022-09-09T00:21:30;0.17;;;0.17;;
23668;SDS011;12011;47.422;15.018;2022-09-09T00:24:08;0.30;;;0.30;;
23668;SDS011;12011;47.422;15.018;2022-09-09T00:26:52;0.22;;;0.22;;
23668;SDS011;12011;47.422;15.018;2022-09-09T00:29:34;0.28;;;0.28;;
23668;SDS011;12011;47.422;15.018;2022-09-09T00:32:12;0.24;;;0.24;;
23668;SDS011;12011;47.422;15.018;2022-09-09T00:34:47;0.23;;;0.23;;
23668;SDS011;12011;47.422;15.018;2022-09-09T00:37:21;0.25;;;0.25;;
23668;SDS011;12011;47.422;15.018;2022-09-09T00:39:54;0.30;;;0.30;;
23668;SDS011;12011;47.422;15.018;2022-09-09T00:42:32;0.34;;;0.34;;
23668;SDS011;12011;47.422;15.018;2022-09-09T00:45:19;0.51;;;0.51;;
23668;SDS011;12011;47.422;15.018;2022-09-09T00:48:21;0.38;;;0.38;;
23668;SDS011;12011;47.422;15.018;2022-09-09T00:51:02;0.47;;;0.47;;
23668;SDS011;12011;47.422;15.018;2022-09-09T00:53:55;0.46;;;0.46;;
23668;SDS011;12011;47.422;15.018;2022-09-09T00:56:55;0.61;;;0.61;;
23668;SDS011;12011;47.422;15.018;2022-09-09T00:59:45;0.43;;;0.43;;
23668;SDS011;12011;47.422;15.018;2022-09-09T01:02:28;0.30;;;0.30;;
23668;SDS011;12011;47.422;15.018;2022-09-09T01:05:07;0.42;;;0.42;;
23668;SDS011;12011;47.422;15.018;2022-09-09T01:07:47;0.35;;;0.35;;
23668;SDS011;12011;47.422;15.018;2022-09-09T01:10:22;0.41;;;0.41;;
23668;SDS011;12011;47.422;15.018;2022-09-09T01:13:08;0.66;;;0.66;;
23668;SDS011;12011;47.422;15.018;2022-09-09T01:15:48;0.44;;;0.44;;
23668;SDS011;12011;47.422;15.018;2022-09-09T01:18:23;0.37;;;0.37;;
23668;SDS011;12011;47.422;15.018;2022-09-09T01:21:01;0.46;;;0.46;;
23668;SDS011;12011;47.422;15.018;2022-09-09T01:23:45;0.45;;;0.45;;
23668;SDS011;12011;47.422;15.018;2022-09-09T01:27:20;0.40;;;0.40;;
23668;SDS011;12011;47.422;15.018;2022-09-09T01:29:52;0.38;;;0.38;;
23668;SDS011;12011;47.422;15.018;2022-09-09T01:32:38;0.56;;;0.56;;
23668;SDS011;12011;47.422;15.018;2022-09-09T01:35:13;0.43;;;0.43;;
23668;SDS011;12011;47.422;15.018;2022-09-09T01:37:59;0.64;;;0.64;;
23668;SDS011;12011;47.422;15.018;2022-09-09T01:40:29;0.57;;;0.57;;
23668;SDS011;12011;47.422;15.018;2022-09-09T01:43:02;0.56;;;0.56;;
23668;SDS011;12011;47.422;15.018;2022-09-09T01:45:33;0.57;;;0.57;;
23668;SDS011;12011;47.422;15.018;2022-09-09T01:48:05;0.46;;;0.46;;
23668;SDS011;12011;47.422;15.018;2022-09-09T01:50:41;0.63;;;0.63;;
23668;SDS011;12011;47.422;15.018;2022-09-09T01:53:11;0.58;;;0.58;;
23668;SDS011;12011;47.422;15.018;2022-09-09T01:55:45;0.45;;;0.45;;
23668;SDS011;12011;47.422;15.018;2022-09-09T01:58:36;0.69;;;0.69;;
23668;SDS011;12011;47.422;15.018;2022-09-09T02:01:23;0.48;;;0.48;;
23668;SDS011;12011;47.422;15.018;2022-09-09T02:04:13;0.51;;;0.51;;
23668;SDS011;12011;47.422;15.018;2022-09-09T02:07:01;0.39;;;0.39;;
23668;SDS011;12011;47.422;15.018;2022-09-09T02:09:34;0.53;;;0.53;;
23668;SDS011;12011;47.422;15.018;2022-09-09T02:12:11;0.43;;;0.43;;
23668;SDS011;12011;47.422;15.018;2022-09-09T02:14:55;0.45;;;0.45;;
23668;SDS011;12011;47.422;15.018;2022-09-09T02:17:39;0.38;;;0.38;;
23668;SDS011;12011;47.422;15.018;2022-09-09T02:20:13;0.49;;;0.49;;
23668;SDS011;12011;47.422;15.018;2022-09-09T02:22:54;0.51;;;0.51;;
23668;SDS011;12011;47.422;15.018;2022-09-09T02:25:26;0.66;;;0.66;;
23668;SDS011;12011;47.422;15.018;2022-09-09T02:28:07;0.68;;;0.68;;
23668;SDS011;12011;47.422;15.018;2022-09-09T02:30:43;0.60;;;0.60;;
23668;SDS011;12011;47.422;15.018;2022-09-09T02:33:25;0.55;;;0.55;;
23668;SDS011;12011;47.422;15.018;2022-09-09T02:36:01;0.65;;;0.65;;
23668;SDS011;12011;47.422;15.018;2022-09-09T02:38:35;0.64;;;0.64;;
23668;SDS011;12011;47.422;15.018;2022-09-09T02:41:14;0.69;;;0.69;;
23668;SDS011;12011;47.422;15.018;2022-09-09T02:43:44;0.60;;;0.60;;
23668;SDS011;12011;47.422;15.018;2022-09-09T02:46:22;0.67;;;0.67;;
23668;SDS011;12011;47.422;15.018;2022-09-09T02:49:08;0.54;;;0.54;;
23668;SDS011;12011;47.422;15.018;2022-09-09T02:51:45;0.67;;;0.67;;
23668;SDS011;12011;47.422;15.018;2022-09-09T02:54:27;0.50;;;0.50;;
23668;SDS011;12011;47.422;15.018;2022-09-09T02:57:06;0.49;;;0.49;;
23668;SDS011;12011;47.422;15.018;2022-09-09T02:59:42;0.61;;;0.61;;
23668;SDS011;12011;47.422;15.018;2022-09-09T03:02:16;0.54;;;0.54;;
23668;SDS011;12011;47.422;15.018;2022-09-09T03:04:51;0.71;;;0.71;;
23668;SDS011;12011;47.422;15.018;2022-09-09T03:07:20;0.57;;;0.57;;
23668;SDS011;12011;47.422;15.018;2022-09-09T03:09:51;0.81;;;0.81;;
23668;SDS011;12011;47.422;15.018;2022-09-09T03:12:23;0.54;;;0.54;;
23668;SDS011;12011;47.422;15.018;2022-09-09T03:14:53;0.59;;;0.59;;
23668;SDS011;12011;47.422;15.018;2022-09-09T03:17:26;0.85;;;0.85;;
23668;SDS011;12011;47.422;15.018;2022-09-09T03:19:56;0.64;;;0.64;;
23668;SDS011;12011;47.422;15.018;2022-09-09T03:22:28;0.61;;;0.61;;
23668;SDS011;12011;47.422;15.018;2022-09-09T03:24:59;0.55;;;0.55;;
23668;SDS011;12011;47.422;15.018;2022-09-09T03:27:30;0.53;;;0.53;;
23668;SDS011;12011;47.422;15.018;2022-09-09T03:30:00;0.54;;;0.54;;
23668;SDS011;12011;47.422;15.018;2022-09-09T03:32:33;0.56;;;0.56;;
23668;SDS011;12011;47.422;15.018;2022-09-09T03:35:03;0.52;;;0.52;;
23668;SDS011;12011;47.422;15.018;2022-09-09T03:37:34;0.61;;;0.61;;
23668;SDS011;12011;47.422;15.018;2022-09-09T03:40:04;0.62;;;0.62;;
23668;SDS011;12011;47.422;15.018;2022-09-09T03:42:36;0.76;;;0.76;;
23668;SDS011;12011;47.422;15.018;2022-09-09T03:45:07;0.68;;;0.68;;
23668;SDS011;12011;47.422;15.018;2022-09-09T03:47:43;0.59;;;0.59;;
23668;SDS011;12011;47.422;15.018;2022-09-09T03:50:13;0.76;;;0.76;;
23668;SDS011;12011;47.422;15.018;2022-09-09T03:52:46;0.59;;;0.59;;
23668;SDS011;12011;47.422;15.018;2022-09-09T03:55:20;0.72;;;0.72;;
23668;SDS011;12011;47.422;15.018;2022-09-09T03:57:50;0.47;;;0.47;;
23668;SDS011;12011;47.422;15.018;2022-09-09T04:00:19;0.63;;;0.63;;
23668;SDS011;12011;47.422;15.018;2022-09-09T04:02:54;0.48;;;0.48;;
23668;SDS011;12011;47.422;15.018;2022-09-09T04:05:23;0.62;;;0.62;;
23668;SDS011;12011;47.422;15.018;2022-09-09T04:07:53;0.52;;;0.52;;
23668;SDS011;12011;47.422;15.018;2022-09-09T04:10:23;0.50;;;0.50;;
23668;SDS011;12011;47.422;15.018;2022-09-09T04:12:55;0.50;;;0.50;;
23668;SDS011;12011;47.422;15.018;2022-09-09T04:15:25;0.63;;;0.63;;
23668;SDS011;12011;47.422;15.018;2022-09-09T04:17:57;0.75;;;0.75;;
23668;SDS011;12011;47.422;15.018;2022-09-09T04:20:27;0.48;;;0.48;;
23668;SDS011;12011;47.422;15.018;2022-09-09T04:22:56;0.53;;;0.53;;
23668;SDS011;12011;47.422;15.018;2022-09-09T04:25:25;0.47;;;0.47;;
23668;SDS011;12011;47.422;15.018;2022-09-09T04:27:56;0.42;;;0.42;;
23668;SDS011;12011;47.422;15.018;2022-09-09T04:30:27;0.54;;;0.54;;
23668;SDS011;12011;47.422;15.018;2022-09-09T04:32:59;0.46;;;0.46;;
23668;SDS011;12011;47.422;15.018;2022-09-09T04:35:29;0.78;;;0.78;;
23668;SDS011;12011;47.422;15.018;2022-09-09T04:37:59;0.63;;;0.63;;
23668;SDS011;12011;47.422;15.018;2022-09-09T04:40:31;0.58;;;0.58;;
23668;SDS011;12011;47.422;15.018;2022-09-09T04:43:01;0.49;;;0.49;;
23668;SDS011;12011;47.422;15.018;2022-09-09T04:45:32;0.64;;;0.64;;
23668;SDS011;12011;47.422;15.018;2022-09-09T04:48:05;0.48;;;0.48;;
23668;SDS011;12011;47.422;15.018;2022-09-09T04:50:35;0.53;;;0.53;;
23668;SDS011;12011;47.422;15.018;2022-09-09T04:53:06;0.47;;;0.47;;
23668;SDS011;12011;47.422;15.018;2022-09-09T04:55:37;0.63;;;0.63;;
23668;SDS011;12011;47.422;15.018;2022-09-09T04:58:07;0.52;;;0.52;;
23668;SDS011;12011;47.422;15.018;2022-09-09T05:00:38;0.56;;;0.56;;
23668;SDS011;12011;47.422;15.018;2022-09-09T05:03:10;0.62;;;0.62;;
23668;SDS011;12011;47.422;15.018;2022-09-09T05:05:41;0.71;;;0.71;;
23668;SDS011;12011;47.422;15.018;2022-09-09T05:08:11;0.61;;;0.61;;
23668;SDS011;12011;47.422;15.018;2022-09-09T05:10:41;0.51;;;0.51;;
23668;SDS011;12011;47.422;15.018;2022-09-09T05:13:11;0.63;;;0.63;;
23668;SDS011;12011;47.422;15.018;2022-09-09T05:15:41;1.56;;;1.56;;
23668;SDS011;12011;47.422;15.018;2022-09-09T05:18:14;0.87;;;0.87;;
23668;SDS011;12011;47.422;15.018;2022-09-09T05:20:43;0.70;;;0.70;;
23668;SDS011;12011;47.422;15.018;2022-09-09T05:23:13;1.07;;;1.07;;
23668;SDS011;12011;47.422;15.018;2022-09-09T05:25:43;0.75;;;0.75;;
23668;SDS011;12011;47.422;15.018;2022-09-09T05:28:21;0.85;;;0.85;;
23668;SDS011;12011;47.422;15.018;2022-09-09T05:30:56;0.89;;;0.89;;
23668;SDS011;12011;47.422;15.018;2022-09-09T05:33:32;0.84;;;0.84;;
23668;SDS011;12011;47.422;15.018;2022-09-09T05:36:04;1.05;;;1.05;;
23668;SDS011;12011;47.422;15.018;2022-09-09T05:38:36;0.81;;;0.81;;
23668;SDS011;12011;47.422;15.018;2022-09-09T05:41:06;0.74;;;0.74;;
23668;SDS011;12011;47.422;15.018;2022-09-09T05:43:38;0.79;;;0.79;;
23668;SDS011;12011;47.422;15.018;2022-09-09T05:46:11;0.79;;;0.79;;
23668;SDS011;12011;47.422;15.018;2022-09-09T05:48:46;0.81;;;0.81;;
23668;SDS011;12011;47.422;15.018;2022-09-09T05:51:19;0.80;;;0.80;;
23668;SDS011;12011;47.422;15.018;2022-09-09T05:53:54;0.62;;;0.62;;
23668;SDS011;12011;47.422;15.018;2022-09-09T05:56:27;0.59;;;0.59;;
23668;SDS011;12011;47.422;15.018;2022-09-09T05:58:58;0.78;;;0.78;;
23668;SDS011;12011;47.422;15.018;2022-09-09T06:01:29;0.95;;;0.95;;
23668;SDS011;12011;47.422;15.018;2022-09-09T06:04:04;1.08;;;1.08;;
23668;SDS011;12011;47.422;15.018;2022-09-09T06:06:35;0.69;;;0.69;;
23668;SDS011;12011;47.422;15.018;2022-09-09T06:09:14;0.84;;;0.84;;
23668;SDS011;12011;47.422;15.018;2022-09-09T06:11:43;1.05;;;1.05;;
23668;SDS011;12011;47.422;15.018;2022-09-09T06:14:14;1.07;;;1.07;;
23668;SDS011;12011;47.422;15.018;2022-09-09T06:16:46;0.71;;;0.71;;
23668;SDS011;12011;47.422;15.018;2022-09-09T06:19:22;1.12;;;1.12;;
23668;SDS011;12011;47.422;15.018;2022-09-09T06:21:55;1.83;;;1.83;;
23668;SDS011;12011;47.422;15.018;2022-09-09T06:24:26;2.07;;;2.07;;
23668;SDS011;12011;47.422;15.018;2022-09-09T06:26:58;2.92;;;2.87;;
23668;SDS011;12011;47.422;15.018;2022-09-09T06:29:32;2.55;;;2.42;;
23668;SDS011;12011;47.422;15.018;2022-09-09T06:32:02;2.79;;;2.54;;
23668;SDS011;12011;47.422;15.018;2022-09-09T06:34:36;3.52;;;3.25;;
23668;SDS011;12011;47.422;15.018;2022-09-09T06:37:06;1.25;;;1.20;;
23668;SDS011;12011;47.422;15.018;2022-09-09T06:39:47;0.94;;;0.91;;
23668;SDS011;12011;47.422;15.018;2022-09-09T06:42:17;0.93;;;0.92;;
23668;SDS011;12011;47.422;15.018;2022-09-09T06:44:56;1.00;;;1.00;;
23668;SDS011;12011;47.422;15.018;2022-09-09T06:47:34;0.84;;;0.84;;
23668;SDS011;12011;47.422;15.018;2022-09-09T06:50:06;0.80;;;0.79;;
23668;SDS011;12011;47.422;15.018;2022-09-09T06:52:38;0.92;;;0.92;;
23668;SDS011;12011;47.422;15.018;2022-09-09T06:55:08;0.85;;;0.85;;
23668;SDS011;12011;47.422;15.018;2022-09-09T06:57:38;0.73;;;0.73;;
23668;SDS011;12011;47.422;15.018;2022-09-09T07:00:13;2.42;;;2.42;;
23668;SDS011;12011;47.422;15.018;2022-09-09T07:02:43;1.19;;;1.19;;
23668;SDS011;12011;47.422;15.018;2022-09-09T07:05:16;0.95;;;0.95;;
23668;SDS011;12011;47.422;15.018;2022-09-09T07:07:46;0.91;;;0.91;;
23668;SDS011;12011;47.422;15.018;2022-09-09T07:10:18;0.63;;;0.63;;
23668;SDS011;12011;47.422;15.018;2022-09-09T07:12:50;0.79;;;0.79;;
23668;SDS011;12011;47.422;15.018;2022-09-09T07:15:23;0.60;;;0.60;;
23668;SDS011;12011;47.422;15.018;2022-09-09T07:17:53;0.76;;;0.76;;
23668;SDS011;12011;47.422;15.018;2022-09-09T07:20:27;0.72;;;0.72;;
23668;SDS011;12011;47.422;15.018;2022-09-09T07:22:56;0.61;;;0.61;;
23668;SDS011;12011;47.422;15.018;2022-09-09T07:25:26;0.44;;;0.44;;
23668;SDS011;12011;47.422;15.018;2022-09-09T07:27:57;0.74;;;0.74;;
23668;SDS011;12011;47.422;15.018;2022-09-09T07:30:27;0.64;;;0.64;;
23668;SDS011;12011;47.422;15.018;2022-09-09T07:32:57;0.68;;;0.68;;
23668;SDS011;12011;47.422;15.018;2022-09-09T07:35:32;0.54;;;0.54;;
23668;SDS011;12011;47.422;15.018;2022-09-09T07:38:02;0.70;;;0.70;;
23668;SDS011;12011;47.422;15.018;2022-09-09T07:40:33;0.59;;;0.59;;
23668;SDS011;12011;47.422;15.018;2022-09-09T07:43:25;0.61;;;0.61;;
23668;SDS011;12011;47.422;15.018;2022-09-09T07:46:16;0.74;;;0.74;;
23668;SDS011;12011;47.422;15.018;2022-09-09T07:49:09;0.65;;;0.65;;
23668;SDS011;12011;47.422;15.018;2022-09-09T07:52:02;0.66;;;0.66;;
23668;SDS011;12011;47.422;15.018;2022-09-09T07:54:53;0.56;;;0.56;;
23668;SDS011;12011;47.422;15.018;2022-09-09T07:57:43;0.57;;;0.57;;
23668;SDS011;12011;47.422;15.018;2022-09-09T08:00:34;0.60;;;0.60;;
23668;SDS011;12011;47.422;15.018;2022-09-09T08:03:25;0.55;;;0.55;;
23668;SDS011;12011;47.422;15.018;2022-09-09T08:06:15;0.76;;;0.76;;
23668;SDS011;12011;47.422;15.018;2022-09-09T08:09:08;0.62;;;0.62;;
23668;SDS011;12011;47.422;15.018;2022-09-09T08:11:58;0.54;;;0.54;;
23668;SDS011;12011;47.422;15.018;2022-09-09T08:14:51;0.59;;;0.59;;
23668;SDS011;12011;47.422;15.018;2022-09-09T08:17:45;0.68;;;0.68;;
23668;SDS011;12011;47.422;15.018;2022-09-09T08:20:36;0.56;;;0.56;;
23668;SDS011;12011;47.422;15.018;2022-09-09T08:23:27;0.42;;;0.42;;
23668;SDS011;12011;47.422;15.018;2022-09-09T08:26:20;0.54;;;0.54;;
23668;SDS011;12011;47.422;15.018;2022-09-09T08:29:13;0.69;;;0.69;;
23668;SDS011;12011;47.422;15.018;2022-09-09T08:32:04;0.61;;;0.61;;
23668;SDS011;12011;47.422;15.018;2022-09-09T08:34:56;0.64;;;0.64;;
23668;SDS011;12011;47.422;15.018;2022-09-09T08:37:46;0.69;;;0.69;;
23668;SDS011;12011;47.422;15.018;2022-09-09T08:40:37;0.57;;;0.57;;
23668;SDS011;12011;47.422;15.018;2022-09-09T08:43:38;0.69;;;0.69;;
23668;SDS011;12011;47.422;15.018;2022-09-09T08:46:34;0.74;;;0.74;;
23668;SDS011;12011;47.422;15.018;2022-09-09T08:49:39;0.62;;;0.62;;
23668;SDS011;12011;47.422;15.018;2022-09-09T08:52:50;0.70;;;0.70;;
23668;SDS011;12011;47.422;15.018;2022-09-09T08:55:49;0.80;;;0.80;;
23668;SDS011;12011;47.422;15.018;2022-09-09T08:58:54;0.94;;;0.94;;
23668;SDS011;12011;47.422;15.018;2022-09-09T09:01:59;0.83;;;0.83;;
23668;SDS011;12011;47.422;15.018;2022-09-09T09:05:08;1.03;;;1.03;;
23668;SDS011;12011;47.422;15.018;2022-09-09T09:08:12;1.39;;;1.39;;
23668;SDS011;12011;47.422;15.018;2022-09-09T09:11:15;1.30;;;1.30;;
23668;SDS011;12011;47.422;15.018;2022-09-09T09:14:10;1.41;;;1.41;;
23668;SDS011;12011;47.422;15.018;2022-09-09T09:17:11;1.51;;;1.51;;
23668;SDS011;12011;47.422;15.018;2022-09-09T09:20:05;1.63;;;1.63;;
23668;SDS011;12011;47.422;15.018;2022-09-09T09:23:02;1.98;;;1.98;;
23668;SDS011;12011;47.422;15.018;2022-09-09T09:25:56;1.53;;;1.53;;
23668;SDS011;12011;47.422;15.018;2022-09-09T09:28:50;1.47;;;1.47;;
23668;SDS011;12011;47.422;15.018;2022-09-09T09:31:47;1.92;;;1.92;;
23668;SDS011;12011;47.422;15.018;2022-09-09T09:34:41;2.27;;;2.27;;
23668;SDS011;12011;47.422;15.018;2022-09-09T09:37:40;1.69;;;1.69;;
23668;SDS011;12011;47.422;15.018;2022-09-09T09:40:32;1.67;;;1.67;;
23668;SDS011;12011;47.422;15.018;2022-09-09T09:43:23;1.66;;;1.66;;
23668;SDS011;12011;47.422;15.018;2022-09-09T09:46:22;1.48;;;1.48;;
23668;SDS011;12011;47.422;15.018;2022-09-09T09:49:25;1.86;;;1.86;;
23668;SDS011;12011;47.422;15.018;2022-09-09T09:52:15;1.56;;;1.56;;
23668;SDS011;12011;47.422;15.018;2022-09-09T09:55:12;1.61;;;1.61;;
23668;SDS011;12011;47.422;15.018;2022-09-09T09:58:06;1.74;;;1.74;;
23668;SDS011;12011;47.422;15.018;2022-09-09T10:01:04;1.23;;;1.23;;
23668;SDS011;12011;47.422;15.018;2022-09-09T10:04:14;1.15;;;1.15;;
23668;SDS011;12011;47.422;15.018;2022-09-09T10:07:12;1.07;;;1.07;;
23668;SDS011;12011;47.422;15.018;2022-09-09T10:10:08;1.14;;;1.14;;
23668;SDS011;12011;47.422;15.018;2022-09-09T10:13:11;1.19;;;1.19;;
23668;SDS011;12011;47.422;15.018;2022-09-09T10:16:14;1.40;;;1.40;;
23668;SDS011;12011;47.422;15.018;2022-09-09T10:19:28;1.15;;;1.15;;
23668;SDS011;12011;47.422;15.018;2022-09-09T10:22:26;0.98;;;0.98;;
23668;SDS011;12011;47.422;15.018;2022-09-09T10:25:24;1.20;;;1.20;;
23668;SDS011;12011;47.422;15.018;2022-09-09T10:28:38;1.38;;;1.38;;
23668;SDS011;12011;47.422;15.018;2022-09-09T10:32:04;1.08;;;1.08;;
23668;SDS011;12011;47.422;15.018;2022-09-09T10:35:24;1.13;;;1.13;;
23668;SDS011;12011;47.422;15.018;2022-09-09T10:38:22;1.14;;;1.14;;
23668;SDS011;12011;47.422;15.018;2022-09-09T10:41:24;1.04;;;1.04;;
23668;SDS011;12011;47.422;15.018;2022-09-09T10:44:36;1.25;;;1.25;;
23668;SDS011;12011;47.422;15.018;2022-09-09T10:47:49;1.17;;;1.17;;
23668;SDS011;12011;47.422;15.018;2022-09-09T10:51:01;1.06;;;1.06;;
23668;SDS011;12011;47.422;15.018;2022-09-09T10:57:33;1.27;;;1.27;;
23668;SDS011;12011;47.422;15.018;2022-09-09T11:00:46;1.01;;;1.01;;
23668;SDS011;12011;47.422;15.018;2022-09-09T11:03:43;1.29;;;1.29;;
23668;SDS011;12011;47.422;15.018;2022-09-09T11:06:42;1.58;;;1.58;;
23668;SDS011;12011;47.422;15.018;2022-09-09T11:09:45;1.28;;;1.28;;
23668;SDS011;12011;47.422;15.018;2022-09-09T11:12:47;0.93;;;0.93;;
23668;SDS011;12011;47.422;15.018;2022-09-09T11:15:43;1.08;;;1.08;;
23668;SDS011;12011;47.422;15.018;2022-09-09T11:18:39;1.11;;;1.11;;
23668;SDS011;12011;47.422;15.018;2022-09-09T11:21:34;1.14;;;1.14;;
23668;SDS011;12011;47.422;15.018;2022-09-09T11:24:33;1.19;;;1.19;;
23668;SDS011;12011;47.422;15.018;2022-09-09T11:27:35;1.24;;;1.24;;
23668;SDS011;12011;47.422;15.018;2022-09-09T11:30:39;1.09;;;1.09;;
23668;SDS011;12011;47.422;15.018;2022-09-09T11:33:53;1.06;;;1.06;;
23668;SDS011;12011;47.422;15.018;2022-09-09T11:37:16;1.31;;;1.31;;
23668;SDS011;12011;47.422;15.018;2022-09-09T11:40:35;1.14;;;1.14;;
23668;SDS011;12011;47.422;15.018;2022-09-09T11:43:30;1.11;;;1.11;;
23668;SDS011;12011;47.422;15.018;2022-09-09T11:46:32;1.15;;;1.15;;
23668;SDS011;12011;47.422;15.018;2022-09-09T11:49:28;1.21;;;1.21;;
23668;SDS011;12011;47.422;15.018;2022-09-09T11:52:36;1.50;;;1.50;;
23668;SDS011;12011;47.422;15.018;2022-09-09T11:55:29;1.02;;;1.02;;
23668;SDS011;12011;47.422;15.018;2022-09-09T11:58:27;1.14;;;1.14;;
23668;SDS011;12011;47.422;15.018;2022-09-09T12:01:29;1.09;;;1.09;;
23668;SDS011;12011;47.422;15.018;2022-09-09T12:04:31;1.36;;;1.36;;
23668;SDS011;12011;47.422;15.018;2022-09-09T12:07:32;1.58;;;1.58;;
23668;SDS011;12011;47.422;15.018;2022-09-09T12:10:28;1.88;;;1.88;;
23668;SDS011;12011;47.422;15.018;2022-09-09T12:13:23;1.72;;;1.72;;
23668;SDS011;12011;47.422;15.018;2022-09-09T12:16:27;1.84;;;1.84;;
23668;SDS011;12011;47.422;15.018;2022-09-09T12:19:26;1.54;;;1.54;;
23668;SDS011;12011;47.422;15.018;2022-09-09T12:22:22;1.63;;;1.63;;
23668;SDS011;12011;47.422;15.018;2022-09-09T12:25:26;1.59;;;1.59;;
23668;SDS011;12011;47.422;15.018;2022-09-09T12:28:39;1.91;;;1.91;;
23668;SDS011;12011;47.422;15.018;2022-09-09T12:31:44;1.41;;;1.41;;
23668;SDS011;12011;47.422;15.018;2022-09-09T12:34:46;1.82;;;1.82;;
23668;SDS011;12011;47.422;15.018;2022-09-09T12:37:44;1.56;;;1.56;;
23668;SDS011;12011;47.422;15.018;2022-09-09T12:40:53;1.75;;;1.75;;
23668;SDS011;12011;47.422;15.018;2022-09-09T12:43:47;2.12;;;2.12;;
23668;SDS011;12011;47.422;15.018;2022-09-09T12:46:39;2.01;;;2.01;;
23668;SDS011;12011;47.422;15.018;2022-09-09T12:49:34;1.78;;;1.78;;
23668;SDS011;12011;47.422;15.018;2022-09-09T12:52:31;1.88;;;1.88;;
23668;SDS011;12011;47.422;15.018;2022-09-09T12:55:25;1.90;;;1.90;;
23668;SDS011;12011;47.422;15.018;2022-09-09T12:58:21;1.95;;;1.95;;
23668;SDS011;12011;47.422;15.018;2022-09-09T13:01:20;1.92;;;1.92;;
23668;SDS011;12011;47.422;15.018;2022-09-09T13:04:18;1.82;;;1.82;;
23668;SDS011;12011;47.422;15.018;2022-09-09T13:07:10;1.75;;;1.75;;
23668;SDS011;12011;47.422;15.018;2022-09-09T13:10:02;1.95;;;1.95;;
23668;SDS011;12011;47.422;15.018;2022-09-09T13:12:53;1.45;;;1.45;;
23668;SDS011;12011;47.422;15.018;2022-09-09T13:15:48;1.67;;;1.67;;
23668;SDS011;12011;47.422;15.018;2022-09-09T13:18:50;1.65;;;1.65;;
23668;SDS011;12011;47.422;15.018;2022-09-09T13:21:42;1.50;;;1.50;;
23668;SDS011;12011;47.422;15.018;2022-09-09T13:24:32;1.77;;;1.77;;
23668;SDS011;12011;47.422;15.018;2022-09-09T13:27:25;1.73;;;1.73;;
23668;SDS011;12011;47.422;15.018;2022-09-09T13:30:21;1.70;;;1.70;;
23668;SDS011;12011;47.422;15.018;2022-09-09T13:33:22;1.90;;;1.90;;
23668;SDS011;12011;47.422;15.018;2022-09-09T13:36:16;1.92;;;1.92;;
23668;SDS011;12011;47.422;15.018;2022-09-09T13:39:21;1.87;;;1.87;;
23668;SDS011;12011;47.422;15.018;2022-09-09T13:42:19;1.91;;;1.91;;
23668;SDS011;12011;47.422;15.018;2022-09-09T13:45:15;1.77;;;1.77;;
23668;SDS011;12011;47.422;15.018;2022-09-09T13:48:17;1.80;;;1.80;;
23668;SDS011;12011;47.422;15.018;2022-09-09T13:54:28;2.00;;;2.00;;
23668;SDS011;12011;47.422;15.018;2022-09-09T13:57:20;1.95;;;1.95;;
23668;SDS011;12011;47.422;15.018;2022-09-09T14:00:14;2.03;;;2.03;;
23668;SDS011;12011;47.422;15.018;2022-09-09T14:03:04;2.07;;;2.07;;
23668;SDS011;12011;47.422;15.018;2022-09-09T14:05:55;2.33;;;2.33;;
23668;SDS011;12011;47.422;15.018;2022-09-09T14:08:47;1.97;;;1.97;;
23668;SDS011;12011;47.422;15.018;2022-09-09T14:11:40;2.06;;;2.06;;
23668;SDS011;12011;47.422;15.018;2022-09-09T14:14:31;2.16;;;2.16;;
23668;SDS011;12011;47.422;15.018;2022-09-09T14:17:21;2.06;;;2.06;;
23668;SDS011;12011;47.422;15.018;2022-09-09T14:20:10;1.98;;;1.98;;
23668;SDS011;12011;47.422;15.018;2022-09-09T14:23:01;2.00;;;2.00;;
23668;SDS011;12011;47.422;15.018;2022-09-09T14:25:54;2.24;;;2.24;;
23668;SDS011;12011;47.422;15.018;2022-09-09T14:28:44;2.21;;;2.21;;
23668;SDS011;12011;47.422;15.018;2022-09-09T14:31:34;2.51;;;2.51;;
23668;SDS011;12011;47.422;15.018;2022-09-09T14:34:24;2.55;;;2.55;;
23668;SDS011;12011;47.422;15.018;2022-09-09T14:37:14;2.32;;;2.32;;
23668;SDS011;12011;47.422;15.018;2022-09-09T14:40:05;2.04;;;2.04;;
23668;SDS011;12011;47.422;15.018;2022-09-09T14:42:59;2.11;;;2.11;;
23668;SDS011;12011;47.422;15.018;2022-09-09T14:45:49;2.08;;;2.08;;
23668;SDS011;12011;47.422;15.018;2022-09-09T14:48:42;2.03;;;2.03;;
23668;SDS011;12011;47.422;15.018;2022-09-09T14:51:34;1.78;;;1.78;;
23668;SDS011;12011;47.422;15.018;2022-09-09T14:54:24;1.82;;;1.82;;
23668;SDS011;12011;47.422;15.018;2022-09-09T14:57:14;1.87;;;1.87;;
23668;SDS011;12011;47.422;15.018;2022-09-09T15:00:07;1.74;;;1.74;;
23668;SDS011;12011;47.422;15.018;2022-09-09T15:02:59;1.94;;;1.94;;
23668;SDS011;12011;47.422;15.018;2022-09-09T15:05:49;1.65;;;1.65;;
23668;SDS011;12011;47.422;15.018;2022-09-09T15:08:41;1.36;;;1.36;;
23668;SDS011;12011;47.422;15.018;2022-09-09T15:11:34;1.27;;;1.27;;
23668;SDS011;12011;47.422;15.018;2022-09-09T15:14:26;0.99;;;0.99;;
23668;SDS011;12011;47.422;15.018;2022-09-09T15:17:19;1.27;;;1.27;;
23668;SDS011;12011;47.422;15.018;2022-09-09T15:20:13;1.00;;;1.00;;
23668;SDS011;12011;47.422;15.018;2022-09-09T15:23:03;1.21;;;1.21;;
23668;SDS011;12011;47.422;15.018;2022-09-09T15:25:55;1.02;;;1.02;;
23668;SDS011;12011;47.422;15.018;2022-09-09T15:28:45;1.03;;;1.03;;
23668;SDS011;12011;47.422;15.018;2022-09-09T15:31:36;1.11;;;1.11;;
23668;SDS011;12011;47.422;15.018;2022-09-09T15:34:29;1.45;;;1.45;;
23668;SDS011;12011;47.422;15.018;2022-09-09T15:37:18;1.35;;;1.35;;
23668;SDS011;12011;47.422;15.018;2022-09-09T15:40:09;1.21;;;1.21;;
23668;SDS011;12011;47.422;15.018;2022-09-09T15:43:02;1.23;;;1.23;;
23668;SDS011;12011;47.422;15.018;2022-09-09T15:45:52;1.02;;;1.02;;
23668;SDS011;12011;47.422;15.018;2022-09-09T15:48:54;0.92;;;0.92;;
23668;SDS011;12011;47.422;15.018;2022-09-09T15:51:50;0.80;;;0.80;;
23668;SDS011;12011;47.422;15.018;2022-09-09T15:54:43;0.79;;;0.79;;
23668;SDS011;12011;47.422;15.018;2022-09-09T15:57:32;0.67;;;0.67;;
23668;SDS011;12011;47.422;15.018;2022-09-09T16:00:23;0.35;;;0.35;;
23668;SDS011;12011;47.422;15.018;2022-09-09T16:03:14;0.38;;;0.38;;
23668;SDS011;12011;47.422;15.018;2022-09-09T16:06:04;0.47;;;0.47;;
23668;SDS011;12011;47.422;15.018;2022-09-09T16:08:57;0.44;;;0.44;;
23668;SDS011;12011;47.422;15.018;2022-09-09T16:11:48;0.52;;;0.52;;
23668;SDS011;12011;47.422;15.018;2022-09-09T16:14:39;0.52;;;0.52;;
23668;SDS011;12011;47.422;15.018;2022-09-09T16:17:28;0.46;;;0.46;;
23668;SDS011;12011;47.422;15.018;2022-09-09T16:20:23;0.72;;;0.72;;
23668;SDS011;12011;47.422;15.018;2022-09-09T16:23:13;0.54;;;0.54;;
23668;SDS011;12011;47.422;15.018;2022-09-09T16:26:05;0.54;;;0.54;;
23668;SDS011;12011;47.422;15.018;2022-09-09T16:28:56;0.62;;;0.62;;